Time,TemperatureF,DewpointF,PressureIn,WindDirection,WindDirectionDegrees,WindSpeedMPH,WindSpeedGustMPH,Humidity,HourlyPrecipIn,Conditions,Clouds,dailyrainin,SoftwareType,DateUTC
2013-02-21 00:01:00,22.4,7.8,30.17,East,87,4.2,5.6,53,0.00,,,0.00,WUHU216HW,2013-02-21 06:01:00,
2013-02-21 00:06:00,22.6,8.0,30.17,NE,51,4.0,8.7,53,0.00,,,0.00,WUHU216HW,2013-02-21 06:06:00,
2013-02-21 00:11:00,22.4,7.8,30.17,ESE,114,5.5,7.2,53,0.00,,,0.00,WUHU216HW,2013-02-21 06:11:00,
2013-02-21 00:16:00,22.4,7.8,30.18,NNE,22,5.8,7.5,53,0.00,,,0.00,WUHU216HW,2013-02-21 06:16:00,
2013-02-21 00:21:00,22.4,7.8,30.18,East,93,5.7,7.2,53,0.00,,,0.00,WUHU216HW,2013-02-21 06:21:00,
2013-02-21 00:26:00,22.2,7.6,30.18,East,98,8.8,13.7,53,0.00,,,0.00,WUHU216HW,2013-02-21 06:26:00,
2013-02-21 00:31:00,22.2,7.6,30.18,East,87,5.8,7.9,53,0.00,,,0.00,WUHU216HW,2013-02-21 06:31:00,
2013-02-21 00:36:00,22.2,7.6,30.18,East,97,5.7,7.5,53,0.00,,,0.00,WUHU216HW,2013-02-21 06:36:00,
2013-02-21 00:41:00,22.2,8.1,30.18,East,100,7.5,13.3,54,0.00,,,0.00,WUHU216HW,2013-02-21 06:41:00,
2013-02-21 00:46:00,22.1,7.5,30.18,East,82,8.5,13.3,53,0.00,,,0.00,WUHU216HW,2013-02-21 06:46:00,
2013-02-21 00:51:00,22.1,8.0,30.18,East,99,5.6,9.8,54,0.00,,,0.00,WUHU216HW,2013-02-21 06:51:00,
2013-02-21 00:56:00,22.1,8.0,30.18,ENE,71,4.9,7.9,54,0.00,,,0.00,WUHU216HW,2013-02-21 06:56:00,
2013-02-21 01:01:00,22.2,8.1,30.19,ESE,115,5.8,8.7,54,0.00,,,0.00,WUHU216HW,2013-02-21 07:01:00,
2013-02-21 01:06:00,22.2,8.1,30.19,ESE,122,4.5,7.2,54,0.00,,,0.00,WUHU216HW,2013-02-21 07:06:00,
2013-02-21 01:11:00,22.4,8.2,30.19,East,101,5.2,8.5,54,0.00,,,0.00,WUHU216HW,2013-02-21 07:11:00,
2013-02-21 01:16:00,22.4,8.2,30.19,ESE,112,5.1,9.5,54,0.00,,,0.00,WUHU216HW,2013-02-21 07:16:00,
2013-02-21 01:21:00,22.4,8.2,30.19,SE,127,4.9,6.2,54,0.00,,,0.00,WUHU216HW,2013-02-21 07:21:00,
2013-02-21 01:26:00,22.6,8.4,30.19,SE,134,4.3,5.4,54,0.00,,,0.00,WUHU216HW,2013-02-21 07:26:00,
2013-02-21 01:31:00,22.8,8.6,30.19,East,93,6.1,10.0,54,0.00,,,0.00,WUHU216HW,2013-02-21 07:31:00,
2013-02-21 01:36:00,22.6,8.4,30.18,East,90,3.8,6.4,54,0.00,,,0.00,WUHU216HW,2013-02-21 07:36:00,
2013-02-21 01:41:00,22.8,8.2,30.18,East,85,5.2,7.7,53,0.00,,,0.00,WUHU216HW,2013-02-21 07:41:00,
2013-02-21 01:46:00,22.6,8.0,30.17,East,95,5.7,6.4,53,0.00,,,0.00,WUHU216HW,2013-02-21 07:46:00,
2013-02-21 01:51:00,22.4,7.8,30.17,East,89,5.2,6.2,53,0.00,,,0.00,WUHU216HW,2013-02-21 07:51:00,
2013-02-21 01:56:00,22.6,8.0,30.16,East,90,5.3,7.9,53,0.00,,,0.00,WUHU216HW,2013-02-21 07:56:00,
2013-02-21 02:01:00,22.6,8.0,30.17,ESE,102,6.0,7.2,53,0.00,,,0.00,WUHU216HW,2013-02-21 08:01:00,
2013-02-21 02:06:00,22.6,8.0,30.16,East,83,5.3,7.9,53,0.00,,,0.00,WUHU216HW,2013-02-21 08:06:00,
2013-02-21 02:11:00,22.4,7.8,30.15,East,92,3.5,4.1,53,0.00,,,0.00,WUHU216HW,2013-02-21 08:11:00,
2013-02-21 02:16:00,22.4,8.2,30.13,NE,56,5.2,7.5,54,0.00,,,0.00,WUHU216HW,2013-02-21 08:16:00,
2013-02-21 02:21:00,22.2,8.1,30.13,ENE,59,5.2,7.7,54,0.00,,,0.00,WUHU216HW,2013-02-21 08:21:00,
2013-02-21 02:26:00,22.1,8.0,30.15,ESE,104,6.6,9.8,54,0.00,,,0.00,WUHU216HW,2013-02-21 08:26:00,
2013-02-21 02:31:00,22.1,8.0,30.15,ESE,110,4.3,5.4,54,0.00,,,0.00,WUHU216HW,2013-02-21 08:31:00,
2013-02-21 02:36:00,22.1,8.4,30.14,ESE,109,4.9,5.4,55,0.00,,,0.00,WUHU216HW,2013-02-21 08:36:00,
2013-02-21 02:41:00,22.2,8.5,30.14,East,89,3.6,4.6,55,0.00,,,0.00,WUHU216HW,2013-02-21 08:41:00,
2013-02-21 02:46:00,22.2,8.5,30.12,East,91,6.5,9.8,55,0.00,,,0.00,WUHU216HW,2013-02-21 08:46:00,
2013-02-21 02:51:00,22.1,8.4,30.12,ESE,105,7.2,9.3,55,0.00,,,0.00,WUHU216HW,2013-02-21 08:51:00,
2013-02-21 02:56:00,22.1,8.4,30.12,ESE,109,6.3,8.7,55,0.00,,,0.00,WUHU216HW,2013-02-21 08:56:00,
2013-02-21 03:01:00,22.1,8.4,30.13,East,81,3.5,6.2,55,0.00,,,0.00,WUHU216HW,2013-02-21 09:01:00,
2013-02-21 03:06:00,22.1,8.4,30.11,ENE,62,3.9,6.7,55,0.00,,,0.00,WUHU216HW,2013-02-21 09:06:00,
2013-02-21 03:11:00,22.1,8.4,30.11,East,101,4.0,5.6,55,0.00,,,0.00,WUHU216HW,2013-02-21 09:11:00,
2013-02-21 03:16:00,22.1,8.4,30.10,NE,50,2.6,3.9,55,0.00,,,0.00,WUHU216HW,2013-02-21 09:16:00,
2013-02-21 03:21:00,22.1,8.4,30.08,NE,42,3.9,4.4,55,0.00,,,0.00,WUHU216HW,2013-02-21 09:21:00,
2013-02-21 03:26:00,21.9,8.2,30.09,East,95,6.4,7.5,55,0.00,,,0.00,WUHU216HW,2013-02-21 09:26:00,
2013-02-21 03:31:00,21.7,8.4,30.08,East,98,4.4,7.2,56,0.00,,,0.00,WUHU216HW,2013-02-21 09:31:00,
2013-02-21 03:36:00,21.7,8.4,30.09,ENE,60,5.2,8.7,56,0.00,,,0.00,WUHU216HW,2013-02-21 09:36:00,
2013-02-21 03:41:00,21.7,8.4,30.08,ENE,73,6.3,12.3,56,0.00,,,0.00,WUHU216HW,2013-02-21 09:41:00,
2013-02-21 03:46:00,21.5,8.2,30.09,ENE,75,5.0,7.2,56,0.00,,,0.00,WUHU216HW,2013-02-21 09:46:00,
2013-02-21 03:51:00,21.7,8.8,30.11,ESE,104,5.8,9.0,57,0.00,,,0.00,WUHU216HW,2013-02-21 09:51:00,
2013-02-21 03:56:00,21.7,8.8,30.12,ESE,112,6.1,10.0,57,0.00,,,0.00,WUHU216HW,2013-02-21 09:56:00,
2013-02-21 04:01:00,21.7,8.8,30.11,ESE,105,6.5,7.2,57,0.00,,,0.00,WUHU216HW,2013-02-21 10:01:00,
2013-02-21 04:06:00,21.7,8.8,30.10,ESE,102,7.9,9.3,57,0.00,,,0.00,WUHU216HW,2013-02-21 10:06:00,
2013-02-21 04:11:00,21.5,9.0,30.10,East,94,7.7,15.2,58,0.00,,,0.00,WUHU216HW,2013-02-21 10:11:00,
2013-02-21 04:16:00,21.7,9.2,30.10,East,83,6.1,11.8,58,0.00,,,0.00,WUHU216HW,2013-02-21 10:16:00,
2013-02-21 04:21:00,21.7,9.2,30.10,ESE,109,9.1,10.6,58,0.00,,,0.00,WUHU216HW,2013-02-21 10:21:00,
2013-02-21 04:26:00,21.7,9.2,30.09,ESE,115,9.7,12.1,58,0.00,,,0.00,WUHU216HW,2013-02-21 10:26:00,
2013-02-21 04:31:00,21.7,9.2,30.09,ESE,113,7.9,9.3,58,0.00,,,0.00,WUHU216HW,2013-02-21 10:31:00,
2013-02-21 04:36:00,21.7,9.2,30.09,NE,55,8.8,10.6,58,0.00,,,0.00,WUHU216HW,2013-02-21 10:36:00,
2013-02-21 04:41:00,21.5,9.0,30.07,ENE,72,13.6,17.5,58,0.00,,,0.00,WUHU216HW,2013-02-21 10:41:00,
2013-02-21 04:46:00,21.3,8.8,30.07,ENE,62,9.5,17.3,58,0.00,,,0.00,WUHU216HW,2013-02-21 10:46:00,
2013-02-21 04:51:00,21.5,9.4,30.07,ESE,106,6.4,7.9,59,0.00,,,0.00,WUHU216HW,2013-02-21 10:51:00,
2013-02-21 04:56:00,21.3,9.2,30.06,ESE,104,12.1,15.4,59,0.00,,,0.00,WUHU216HW,2013-02-21 10:56:00,
2013-02-21 05:01:00,21.3,9.2,30.06,ENE,75,9.7,16.4,59,0.00,,,0.00,WUHU216HW,2013-02-21 11:01:00,
2013-02-21 05:06:00,21.3,9.2,30.05,East,94,8.7,14.9,59,0.00,,,0.00,WUHU216HW,2013-02-21 11:06:00,
2013-02-21 05:11:00,21.3,9.2,30.05,East,87,8.6,12.6,59,0.00,,,0.00,WUHU216HW,2013-02-21 11:11:00,
2013-02-21 05:16:00,21.3,9.2,30.06,ESE,102,11.3,19.3,59,0.00,,,0.00,WUHU216HW,2013-02-21 11:16:00,
2013-02-21 05:21:00,21.3,9.2,30.06,East,96,10.4,13.9,59,0.00,,,0.00,WUHU216HW,2013-02-21 11:21:00,
2013-02-21 05:26:00,21.3,9.2,30.07,East,95,9.9,12.1,59,0.00,,,0.00,WUHU216HW,2013-02-21 11:26:00,
2013-02-21 05:31:00,21.3,9.2,30.07,East,93,10.1,13.9,59,0.00,,,0.00,WUHU216HW,2013-02-21 11:31:00,
2013-02-21 05:36:00,21.3,9.2,30.07,East,92,7.2,13.1,59,0.00,,,0.00,WUHU216HW,2013-02-21 11:36:00,
2013-02-21 05:41:00,21.3,9.2,30.08,East,86,8.8,14.7,59,0.00,,,0.00,WUHU216HW,2013-02-21 11:41:00,
2013-02-21 05:46:00,21.5,9.4,30.08,East,95,8.7,18.5,59,0.00,,,0.00,WUHU216HW,2013-02-21 11:46:00,
2013-02-21 05:51:00,21.5,9.4,30.08,East,86,9.9,13.1,59,0.00,,,0.00,WUHU216HW,2013-02-21 11:51:00,
2013-02-21 05:56:00,21.5,9.4,30.08,ESE,104,10.1,13.1,59,0.00,,,0.00,WUHU216HW,2013-02-21 11:56:00,
2013-02-21 06:01:00,21.5,9.4,30.08,East,90,9.0,14.7,59,0.00,,,0.00,WUHU216HW,2013-02-21 12:01:00,
2013-02-21 06:06:00,21.5,9.4,30.08,ESE,107,7.7,10.8,59,0.00,,,0.00,WUHU216HW,2013-02-21 12:06:00,
2013-02-21 06:11:00,21.7,9.6,30.08,ESE,106,5.3,6.9,59,0.00,,,0.00,WUHU216HW,2013-02-21 12:11:00,
2013-02-21 06:16:00,21.7,10.0,30.07,ENE,69,4.9,10.2,60,0.00,,,0.00,WUHU216HW,2013-02-21 12:16:00,
2013-02-21 06:21:00,21.9,9.8,30.07,East,85,4.8,7.2,59,0.00,,,0.00,WUHU216HW,2013-02-21 12:21:00,
2013-02-21 06:26:00,21.9,10.2,30.07,East,88,5.2,6.4,60,0.00,,,0.00,WUHU216HW,2013-02-21 12:26:00,
2013-02-21 06:31:00,21.7,10.0,30.06,East,90,8.6,12.3,60,0.00,,,0.00,WUHU216HW,2013-02-21 12:31:00,
2013-02-21 06:36:00,21.5,9.8,30.06,East,85,8.7,11.8,60,0.00,,,0.00,WUHU216HW,2013-02-21 12:36:00,
2013-02-21 06:41:00,21.5,10.2,30.06,ENE,71,6.7,10.6,61,0.00,,,0.00,WUHU216HW,2013-02-21 12:41:00,
2013-02-21 06:46:00,21.5,10.2,30.06,ENE,62,7.3,9.8,61,0.00,,,0.00,WUHU216HW,2013-02-21 12:46:00,
2013-02-21 06:51:00,21.5,10.2,30.07,East,81,6.3,7.9,61,0.00,,,0.00,WUHU216HW,2013-02-21 12:51:00,
2013-02-21 06:56:00,21.7,10.4,30.06,NE,48,4.7,5.9,61,0.00,,,0.00,WUHU216HW,2013-02-21 12:56:00,
2013-02-21 07:01:00,21.7,10.4,30.07,East,87,6.3,10.6,61,0.00,,,0.00,WUHU216HW,2013-02-21 13:01:00,
2013-02-21 07:06:00,21.5,10.2,30.07,East,91,10.5,13.9,61,0.00,,,0.00,WUHU216HW,2013-02-21 13:06:00,
2013-02-21 07:11:00,21.7,10.4,30.06,East,86,5.2,6.4,61,0.00,,,0.00,WUHU216HW,2013-02-21 13:11:00,
2013-02-21 07:16:00,21.7,10.4,30.06,East,84,6.9,10.8,61,0.00,,,0.00,WUHU216HW,2013-02-21 13:16:00,
2013-02-21 07:21:00,21.7,10.4,30.06,East,100,7.4,10.8,61,0.00,,,0.00,WUHU216HW,2013-02-21 13:21:00,
2013-02-21 07:26:00,21.5,10.2,30.05,East,89,6.4,10.6,61,0.00,,,0.00,WUHU216HW,2013-02-21 13:26:00,
2013-02-21 07:31:00,21.5,10.2,30.05,ENE,78,6.6,9.8,61,0.00,,,0.00,WUHU216HW,2013-02-21 13:31:00,
2013-02-21 07:36:00,21.5,10.2,30.04,East,96,8.1,12.1,61,0.00,,,0.00,WUHU216HW,2013-02-21 13:36:00,
2013-02-21 07:41:00,21.3,10.3,30.04,ENE,62,8.7,14.1,62,0.00,,,0.00,WUHU216HW,2013-02-21 13:41:00,
2013-02-21 07:46:00,21.3,10.3,30.04,East,84,8.4,11.3,62,0.00,,,0.00,WUHU216HW,2013-02-21 13:46:00,
2013-02-21 07:51:00,21.3,10.3,30.04,ENE,74,9.9,12.9,62,0.00,,,0.00,WUHU216HW,2013-02-21 13:51:00,
2013-02-21 07:56:00,21.3,10.7,30.04,ENE,70,10.2,12.1,63,0.00,,,0.00,WUHU216HW,2013-02-21 13:56:00,
2013-02-21 08:01:00,21.3,10.7,30.04,ENE,63,9.5,11.3,63,0.00,,,0.00,WUHU216HW,2013-02-21 14:01:00,
2013-02-21 08:06:00,21.3,10.7,30.04,East,96,7.4,13.3,63,0.00,,,0.00,WUHU216HW,2013-02-21 14:06:00,
2013-02-21 08:11:00,21.3,10.7,30.04,ENE,69,6.9,8.5,63,0.00,,,0.00,WUHU216HW,2013-02-21 14:11:00,
2013-02-21 08:16:00,21.3,10.7,30.06,ENE,66,6.1,7.5,63,0.00,,,0.00,WUHU216HW,2013-02-21 14:16:00,
2013-02-21 08:22:00,21.5,10.9,30.07,ESE,108,7.5,11.3,63,0.00,,,0.00,WUHU216HW,2013-02-21 14:22:00,
2013-02-21 08:29:00,21.7,11.1,30.08,East,95,11.2,16.2,63,0.00,,,0.00,WUHU216HW,2013-02-21 14:29:00,
2013-02-21 08:36:00,21.7,11.1,30.09,East,96,9.7,15.4,63,0.00,,,0.00,WUHU216HW,2013-02-21 14:36:00,
2013-02-21 08:43:00,21.7,11.1,30.09,ESE,104,9.1,12.1,63,0.00,,,0.00,WUHU216HW,2013-02-21 14:43:00,
2013-02-21 08:49:00,21.7,11.1,30.09,East,79,9.6,11.3,63,0.00,,,0.00,WUHU216HW,2013-02-21 14:49:00,
2013-02-21 08:56:00,21.7,11.5,30.08,ESE,106,10.0,12.1,64,0.00,,,0.00,WUHU216HW,2013-02-21 14:56:00,
2013-02-21 09:10:00,21.9,11.6,30.07,East,97,9.1,13.3,64,0.00,,,0.00,WUHU216HW,2013-02-21 15:10:00,
2013-02-21 09:16:00,21.9,11.6,30.06,ENE,78,7.3,12.1,64,0.00,,,0.00,WUHU216HW,2013-02-21 15:16:00,
2013-02-21 09:21:00,21.9,11.6,30.06,ESE,105,7.9,10.6,64,0.00,,,0.00,WUHU216HW,2013-02-21 15:21:00,
2013-02-21 09:26:00,22.1,11.8,30.06,East,87,8.1,13.9,64,0.00,,,0.00,WUHU216HW,2013-02-21 15:26:00,
2013-02-21 09:31:00,22.1,11.8,30.06,East,87,4.9,7.5,64,0.00,,,0.00,WUHU216HW,2013-02-21 15:31:00,
2013-02-21 09:36:00,22.1,11.8,30.06,East,83,8.5,11.8,64,0.00,,,0.00,WUHU216HW,2013-02-21 15:36:00,
2013-02-21 09:41:00,22.2,11.9,30.05,ENE,78,11.3,15.4,64,0.00,,,0.00,WUHU216HW,2013-02-21 15:41:00,
2013-02-21 09:46:00,22.2,11.9,30.05,North,10,4.5,6.2,64,0.00,,,0.00,WUHU216HW,2013-02-21 15:46:00,
2013-02-21 09:51:00,22.4,11.8,30.04,East,87,12.6,19.1,63,0.00,,,0.00,WUHU216HW,2013-02-21 15:51:00,
2013-02-21 09:56:00,22.2,11.6,30.04,ENE,70,6.4,11.3,63,0.00,,,0.00,WUHU216HW,2013-02-21 15:56:00,
2013-02-21 10:01:00,22.4,11.8,30.03,ENE,63,7.1,12.3,63,0.00,,,0.00,WUHU216HW,2013-02-21 16:01:00,
2013-02-21 10:06:00,22.4,11.8,30.04,NE,55,7.0,14.1,63,0.00,,,0.00,WUHU216HW,2013-02-21 16:06:00,
2013-02-21 10:11:00,22.6,12.0,30.03,ENE,73,6.5,10.6,63,0.00,,,0.00,WUHU216HW,2013-02-21 16:11:00,
2013-02-21 10:16:00,22.8,12.1,30.03,ENE,77,6.5,11.6,63,0.00,,,0.00,WUHU216HW,2013-02-21 16:16:00,
2013-02-21 10:21:00,23.0,12.3,30.02,ENE,74,5.7,7.7,63,0.00,,,0.00,WUHU216HW,2013-02-21 16:21:00,
2013-02-21 10:26:00,23.3,12.3,30.01,NNE,27,8.4,12.3,62,0.00,,,0.00,WUHU216HW,2013-02-21 16:26:00,
2013-02-21 10:31:00,23.5,12.1,30.01,East,90,8.7,11.0,61,0.00,,,0.00,WUHU216HW,2013-02-21 16:31:00,
2013-02-21 10:36:00,23.7,12.3,30.01,ESE,102,8.7,13.1,61,0.00,,,0.00,WUHU216HW,2013-02-21 16:36:00,
2013-02-21 10:41:00,23.9,12.5,30.01,East,90,9.2,14.9,61,0.00,,,0.00,WUHU216HW,2013-02-21 16:41:00,
2013-02-21 10:46:00,24.0,12.2,30.00,NE,54,8.0,13.1,60,0.00,,,0.00,WUHU216HW,2013-02-21 16:46:00,
2013-02-21 10:51:00,24.2,12.0,30.00,East,89,10.9,12.9,59,0.00,,,0.00,WUHU216HW,2013-02-21 16:51:00,
2013-02-21 10:56:00,24.2,12.0,30.00,East,82,8.8,10.6,59,0.00,,,0.00,WUHU216HW,2013-02-21 16:56:00,
2013-02-21 11:01:00,24.2,12.0,29.99,ENE,64,13.7,17.0,59,0.00,,,0.00,WUHU216HW,2013-02-21 17:01:00,
2013-02-21 11:06:00,24.4,12.2,29.99,East,86,9.4,13.1,59,0.00,,,0.00,WUHU216HW,2013-02-21 17:06:00,
2013-02-21 11:11:00,24.6,12.4,30.00,ENE,74,6.1,8.7,59,0.00,,,0.00,WUHU216HW,2013-02-21 17:11:00,
2013-02-21 11:16:00,24.8,12.5,30.00,ESE,102,9.8,13.3,59,0.00,,,0.00,WUHU216HW,2013-02-21 17:16:00,
2013-02-21 11:21:00,24.8,13.7,30.00,ENE,68,9.1,12.9,62,0.00,,,0.00,WUHU216HW,2013-02-21 17:21:00,
2013-02-21 11:26:00,24.2,13.8,30.00,East,91,9.2,13.7,64,0.00,,,0.00,WUHU216HW,2013-02-21 17:26:00,
2013-02-21 11:31:00,24.0,14.4,30.00,East,83,10.9,17.3,66,0.00,,,0.00,WUHU216HW,2013-02-21 17:31:00,
2013-02-21 11:36:00,23.5,15.2,29.99,East,94,10.5,15.4,70,0.00,,,0.00,WUHU216HW,2013-02-21 17:36:00,
2013-02-21 11:41:00,23.0,15.7,29.98,ESE,106,10.3,13.3,73,0.00,,,0.00,WUHU216HW,2013-02-21 17:41:00,
2013-02-21 11:46:00,22.8,15.5,29.98,East,81,9.2,18.5,73,0.00,,,0.00,WUHU216HW,2013-02-21 17:46:00,
2013-02-21 11:51:00,22.8,16.1,29.98,NE,51,7.0,9.5,75,0.00,,,0.00,WUHU216HW,2013-02-21 17:51:00,
2013-02-21 11:56:00,22.8,16.4,29.97,ENE,68,7.9,10.2,76,0.00,,,0.00,WUHU216HW,2013-02-21 17:56:00,
2013-02-21 12:01:00,22.6,16.5,29.97,East,82,6.7,11.6,77,0.00,,,0.00,WUHU216HW,2013-02-21 18:01:00,
2013-02-21 12:06:00,22.6,16.5,29.96,ENE,62,5.5,7.2,77,0.00,,,0.00,WUHU216HW,2013-02-21 18:06:00,
2013-02-21 12:11:00,22.6,16.5,29.96,NE,43,5.3,7.9,77,0.00,,,0.00,WUHU216HW,2013-02-21 18:11:00,
2013-02-21 12:16:00,22.4,16.3,29.95,NNE,33,5.5,9.0,77,0.00,,,0.00,WUHU216HW,2013-02-21 18:16:00,
2013-02-21 12:21:00,22.6,16.8,29.95,NE,47,5.7,6.2,78,0.00,,,0.00,WUHU216HW,2013-02-21 18:21:00,
2013-02-21 12:26:00,22.6,16.5,29.95,NE,56,6.1,9.5,77,0.00,,,0.00,WUHU216HW,2013-02-21 18:26:00,
2013-02-21 12:31:00,22.8,17.0,29.94,East,83,4.1,6.7,78,0.00,,,0.00,WUHU216HW,2013-02-21 18:31:00,
2013-02-21 12:36:00,22.8,17.0,29.94,ESE,111,6.9,9.8,78,0.00,,,0.00,WUHU216HW,2013-02-21 18:36:00,
2013-02-21 12:41:00,22.6,17.1,29.93,NE,45,4.3,5.2,79,0.00,,,0.00,WUHU216HW,2013-02-21 18:41:00,
2013-02-21 12:46:00,22.8,17.3,29.94,East,85,4.3,5.9,79,0.00,,,0.00,WUHU216HW,2013-02-21 18:46:00,
2013-02-21 12:51:00,23.0,17.2,29.94,ENE,66,3.8,6.2,78,0.00,,,0.00,WUHU216HW,2013-02-21 18:51:00,
2013-02-21 12:56:00,22.8,17.3,29.94,East,79,6.7,8.7,79,0.00,,,0.00,WUHU216HW,2013-02-21 18:56:00,
2013-02-21 13:01:00,22.6,17.4,29.95,ENE,72,6.0,9.3,80,0.00,,,0.00,WUHU216HW,2013-02-21 19:01:00,
2013-02-21 13:06:00,22.4,17.2,29.94,ENE,73,6.8,9.5,80,0.00,,,0.00,WUHU216HW,2013-02-21 19:06:00,
2013-02-21 13:11:00,22.2,17.3,29.94,NE,53,5.2,6.4,81,0.00,,,0.00,WUHU216HW,2013-02-21 19:11:00,
2013-02-21 13:16:00,22.2,17.3,29.94,ENE,69,4.8,7.2,81,0.00,,,0.00,WUHU216HW,2013-02-21 19:16:00,
2013-02-21 13:21:00,22.2,17.3,29.94,NE,35,3.3,3.9,81,0.00,,,0.00,WUHU216HW,2013-02-21 19:21:00,
2013-02-21 13:26:00,22.2,17.3,29.93,NNE,29,5.3,6.9,81,0.00,,,0.00,WUHU216HW,2013-02-21 19:26:00,
2013-02-21 13:31:00,22.1,17.4,29.93,ENE,58,5.2,9.8,82,0.00,,,0.00,WUHU216HW,2013-02-21 19:31:00,
2013-02-21 13:36:00,22.1,17.4,29.93,NE,36,5.0,7.2,82,0.00,,,0.00,WUHU216HW,2013-02-21 19:36:00,
2013-02-21 13:41:00,22.1,17.4,29.93,NE,56,4.9,6.7,82,0.00,,,0.00,WUHU216HW,2013-02-21 19:41:00,
2013-02-21 13:46:00,22.2,17.5,29.92,ENE,61,5.1,10.2,82,0.00,,,0.00,WUHU216HW,2013-02-21 19:46:00,
2013-02-21 13:51:00,22.4,17.7,29.92,East,90,5.2,7.9,82,0.00,,,0.00,WUHU216HW,2013-02-21 19:51:00,
2013-02-21 13:56:00,22.2,17.3,29.92,East,101,6.7,8.7,81,0.00,,,0.00,WUHU216HW,2013-02-21 19:56:00,
2013-02-21 14:01:00,22.2,17.3,29.92,NE,43,6.9,8.7,81,0.00,,,0.00,WUHU216HW,2013-02-21 20:01:00,
2013-02-21 14:06:00,22.4,17.5,29.92,NE,49,4.4,6.9,81,0.00,,,0.00,WUHU216HW,2013-02-21 20:06:00,
2013-02-21 14:11:00,22.4,17.7,29.91,ESE,116,6.7,8.5,82,0.00,,,0.00,WUHU216HW,2013-02-21 20:11:00,
2013-02-21 14:16:00,22.4,17.5,29.90,East,88,5.5,8.5,81,0.00,,,0.00,WUHU216HW,2013-02-21 20:16:00,
2013-02-21 14:21:00,22.4,17.5,29.90,NE,53,5.3,7.2,81,0.00,,,0.00,WUHU216HW,2013-02-21 20:21:00,
2013-02-21 14:26:00,22.6,17.7,29.90,NNE,31,2.7,3.1,81,0.00,,,0.00,WUHU216HW,2013-02-21 20:26:00,
2013-02-21 14:31:00,22.8,17.9,29.90,ENE,66,4.0,5.2,81,0.00,,,0.00,WUHU216HW,2013-02-21 20:31:00,
2013-02-21 14:36:00,22.8,17.9,29.90,NNE,14,3.9,6.2,81,0.00,,,0.00,WUHU216HW,2013-02-21 20:36:00,
2013-02-21 14:41:00,22.8,17.9,29.90,NE,56,2.6,4.4,81,0.00,,,0.00,WUHU216HW,2013-02-21 20:41:00,
2013-02-21 14:46:00,22.8,17.9,29.89,NNE,27,3.2,6.2,81,0.00,,,0.00,WUHU216HW,2013-02-21 20:46:00,
2013-02-21 14:51:00,23.0,18.0,29.89,ENE,63,3.4,5.4,81,0.00,,,0.00,WUHU216HW,2013-02-21 20:51:00,
2013-02-21 14:56:00,22.8,17.9,29.90,ENE,77,4.6,6.4,81,0.00,,,0.00,WUHU216HW,2013-02-21 20:56:00,
2013-02-21 15:01:00,22.8,18.1,29.90,ENE,58,4.0,6.7,82,0.00,,,0.00,WUHU216HW,2013-02-21 21:01:00,
2013-02-21 15:06:00,22.8,17.9,29.90,East,79,4.9,11.6,81,0.00,,,0.00,WUHU216HW,2013-02-21 21:06:00,
2013-02-21 15:11:00,22.8,17.9,29.90,ENE,74,4.9,8.7,81,0.00,,,0.00,WUHU216HW,2013-02-21 21:11:00,
2013-02-21 15:16:00,22.8,18.1,29.90,ENE,68,4.4,5.2,82,0.00,,,0.00,WUHU216HW,2013-02-21 21:16:00,
2013-02-21 15:21:00,22.8,18.1,29.89,ENE,66,4.3,6.2,82,0.00,,,0.00,WUHU216HW,2013-02-21 21:21:00,
2013-02-21 15:26:00,22.6,17.9,29.89,ENE,64,5.4,7.9,82,0.00,,,0.00,WUHU216HW,2013-02-21 21:26:00,
2013-02-21 15:31:00,22.8,18.1,29.89,ENE,64,4.4,7.2,82,0.00,,,0.00,WUHU216HW,2013-02-21 21:31:00,
2013-02-21 15:36:00,22.4,17.7,29.90,NE,51,5.9,7.2,82,0.00,,,0.00,WUHU216HW,2013-02-21 21:36:00,
2013-02-21 15:41:00,22.4,17.7,29.89,ENE,66,4.8,7.9,82,0.00,,,0.00,WUHU216HW,2013-02-21 21:41:00,
2013-02-21 15:46:00,22.4,17.7,29.89,NNE,14,4.3,5.2,82,0.00,,,0.00,WUHU216HW,2013-02-21 21:46:00,
2013-02-21 15:51:00,22.2,17.5,29.88,NE,52,5.4,6.4,82,0.00,,,0.00,WUHU216HW,2013-02-21 21:51:00,
2013-02-21 15:56:00,22.2,17.5,29.88,ESE,108,3.4,7.9,82,0.00,,,0.00,WUHU216HW,2013-02-21 21:56:00,
2013-02-21 16:01:00,22.2,17.8,29.88,NE,38,5.1,7.2,83,0.00,,,0.00,WUHU216HW,2013-02-21 22:01:00,
2013-02-21 16:06:00,22.1,17.7,29.88,NE,43,4.2,8.5,83,0.00,,,0.00,WUHU216HW,2013-02-21 22:06:00,
2013-02-21 16:11:00,22.1,17.7,29.88,NNE,20,3.2,5.4,83,0.00,,,0.00,WUHU216HW,2013-02-21 22:11:00,
2013-02-21 16:16:00,22.1,17.7,29.88,NNE,31,2.6,3.9,83,0.00,,,0.00,WUHU216HW,2013-02-21 22:16:00,
2013-02-21 16:21:00,22.2,17.8,29.88,NE,36,2.3,4.6,83,0.00,,,0.00,WUHU216HW,2013-02-21 22:21:00,
2013-02-21 16:26:00,22.4,18.3,29.87,NE,41,3.4,4.4,84,0.00,,,0.00,WUHU216HW,2013-02-21 22:26:00,
2013-02-21 16:31:00,22.6,18.8,29.87,ENE,71,4.2,6.2,85,0.00,,,0.00,WUHU216HW,2013-02-21 22:31:00,
2013-02-21 16:36:00,22.6,18.5,29.87,East,90,3.5,3.9,84,0.00,,,0.00,WUHU216HW,2013-02-21 22:36:00,
2013-02-21 16:41:00,22.4,18.3,29.87,East,93,6.3,10.8,84,0.00,,,0.00,WUHU216HW,2013-02-21 22:41:00,
2013-02-21 16:46:00,22.2,18.1,29.86,NE,38,3.7,4.6,84,0.00,,,0.00,WUHU216HW,2013-02-21 22:46:00,
2013-02-21 16:51:00,22.2,18.1,29.86,NNE,22,3.0,3.9,84,0.00,,,0.00,WUHU216HW,2013-02-21 22:51:00,
2013-02-21 16:56:00,22.1,17.7,29.86,East,84,3.5,5.2,83,0.00,,,0.00,WUHU216HW,2013-02-21 22:56:00,
2013-02-21 17:01:00,22.1,17.7,29.86,North,11,3.2,4.1,83,0.00,,,0.00,WUHU216HW,2013-02-21 23:01:00,
2013-02-21 17:06:00,22.1,17.7,29.86,NNE,16,2.9,4.4,83,0.00,,,0.00,WUHU216HW,2013-02-21 23:06:00,
2013-02-21 17:11:00,22.1,17.7,29.86,North,6,3.5,4.6,83,0.00,,,0.00,WUHU216HW,2013-02-21 23:11:00,
2013-02-21 17:16:00,22.2,17.8,29.85,NE,56,3.3,5.4,83,0.00,,,0.00,WUHU216HW,2013-02-21 23:16:00,
2013-02-21 17:21:00,22.2,17.8,29.86,NE,49,3.0,4.9,83,0.00,,,0.00,WUHU216HW,2013-02-21 23:21:00,
2013-02-21 17:26:00,22.2,18.1,29.86,NE,39,3.0,3.9,84,0.00,,,0.00,WUHU216HW,2013-02-21 23:26:00,
2013-02-21 17:31:00,22.1,18.0,29.86,NNE,12,3.2,4.6,84,0.00,,,0.00,WUHU216HW,2013-02-21 23:31:00,
2013-02-21 17:36:00,22.1,17.7,29.86,NE,39,2.9,4.6,83,0.00,,,0.00,WUHU216HW,2013-02-21 23:36:00,
2013-02-21 17:41:00,22.2,17.8,29.86,NE,54,1.9,2.9,83,0.00,,,0.00,WUHU216HW,2013-02-21 23:41:00,
2013-02-21 17:46:00,22.2,17.8,29.86,East,90,5.8,7.2,83,0.00,,,0.00,WUHU216HW,2013-02-21 23:46:00,
2013-02-21 17:51:00,22.1,17.7,29.86,ENE,61,3.2,4.9,83,0.00,,,0.00,WUHU216HW,2013-02-21 23:51:00,
2013-02-21 17:56:00,21.9,17.2,29.85,NNE,26,2.9,4.9,82,0.00,,,0.00,WUHU216HW,2013-02-21 23:56:00,
2013-02-21 18:01:00,21.9,17.5,29.85,NNE,30,3.4,4.6,83,0.00,,,0.00,WUHU216HW,2013-02-22 00:01:00,
2013-02-21 18:06:00,21.7,17.3,29.85,NE,47,3.0,4.4,83,0.00,,,0.00,WUHU216HW,2013-02-22 00:06:00,
2013-02-21 18:11:00,21.7,17.3,29.85,ENE,61,3.3,4.1,83,0.00,,,0.00,WUHU216HW,2013-02-22 00:11:00,
2013-02-21 18:16:00,21.7,17.3,29.85,NNE,24,3.3,4.9,83,0.00,,,0.00,WUHU216HW,2013-02-22 00:16:00,
2013-02-21 18:21:00,21.7,17.3,29.85,NE,41,3.1,4.6,83,0.00,,,0.00,WUHU216HW,2013-02-22 00:21:00,
2013-02-21 18:26:00,21.7,17.3,29.85,ENE,59,3.3,3.9,83,0.00,,,0.00,WUHU216HW,2013-02-22 00:26:00,
2013-02-21 18:31:00,21.7,17.3,29.85,NNE,29,3.5,4.4,83,0.00,,,0.00,WUHU216HW,2013-02-22 00:31:00,
2013-02-21 18:36:00,21.7,17.3,29.85,East,85,4.7,6.4,83,0.00,,,0.00,WUHU216HW,2013-02-22 00:36:00,
2013-02-21 18:41:00,21.7,17.3,29.85,NE,51,3.4,4.4,83,0.00,,,0.00,WUHU216HW,2013-02-22 00:41:00,
2013-02-21 18:46:00,21.7,17.6,29.85,NE,45,2.5,3.6,84,0.00,,,0.00,WUHU216HW,2013-02-22 00:46:00,
2013-02-21 18:51:00,21.7,17.3,29.84,NE,51,3.2,5.6,83,0.00,,,0.00,WUHU216HW,2013-02-22 00:51:00,
2013-02-21 18:56:00,21.9,17.5,29.84,NE,38,3.1,4.6,83,0.00,,,0.00,WUHU216HW,2013-02-22 00:56:00,
2013-02-21 19:01:00,21.9,17.5,29.84,ENE,70,2.0,3.9,83,0.00,,,0.00,WUHU216HW,2013-02-22 01:01:00,
2013-02-21 19:06:00,22.1,17.7,29.84,NNE,27,3.3,4.9,83,0.00,,,0.00,WUHU216HW,2013-02-22 01:06:00,
2013-02-21 19:11:00,22.1,17.7,29.84,ENE,61,3.2,4.1,83,0.00,,,0.00,WUHU216HW,2013-02-22 01:11:00,
2013-02-21 19:16:00,22.1,17.7,29.84,NNE,33,3.7,5.4,83,0.00,,,0.00,WUHU216HW,2013-02-22 01:16:00,
2013-02-21 19:21:00,22.1,17.7,29.84,NNE,23,3.7,4.9,83,0.00,,,0.00,WUHU216HW,2013-02-22 01:21:00,
2013-02-21 19:26:00,22.2,17.8,29.84,ENE,78,2.8,3.1,83,0.00,,,0.00,WUHU216HW,2013-02-22 01:26:00,
2013-02-21 19:31:00,22.2,17.8,29.84,ENE,68,2.4,3.9,83,0.00,,,0.00,WUHU216HW,2013-02-22 01:31:00,
2013-02-21 19:36:00,22.2,17.8,29.84,East,82,3.4,4.4,83,0.00,,,0.00,WUHU216HW,2013-02-22 01:36:00,
2013-02-21 19:41:00,22.2,17.8,29.84,NE,35,2.4,2.5,83,0.00,,,0.00,WUHU216HW,2013-02-22 01:41:00,
2013-02-21 19:46:00,22.4,18.0,29.84,NE,36,2.9,3.9,83,0.00,,,0.00,WUHU216HW,2013-02-22 01:46:00,
2013-02-21 19:51:00,22.8,18.4,29.84,NE,44,2.9,4.9,83,0.00,,,0.00,WUHU216HW,2013-02-22 01:51:00,
2013-02-21 19:56:00,22.8,18.4,29.83,NE,42,2.5,2.9,83,0.00,,,0.00,WUHU216HW,2013-02-22 01:56:00,
2013-02-21 20:01:00,22.8,18.4,29.84,North,11,3.1,4.6,83,0.00,,,0.00,WUHU216HW,2013-02-22 02:01:00,
2013-02-21 20:06:00,22.8,18.4,29.84,NNE,32,2.6,3.6,83,0.00,,,0.00,WUHU216HW,2013-02-22 02:06:00,
2013-02-21 20:11:00,22.8,18.4,29.84,ENE,60,2.9,4.4,83,0.00,,,0.00,WUHU216HW,2013-02-22 02:11:00,
2013-02-21 20:16:00,22.8,18.4,29.84,NE,42,2.1,2.5,83,0.00,,,0.00,WUHU216HW,2013-02-22 02:16:00,
2013-02-21 20:21:00,22.8,18.4,29.84,ENE,59,3.1,4.9,83,0.00,,,0.00,WUHU216HW,2013-02-22 02:21:00,
2013-02-21 20:26:00,22.8,18.4,29.83,ENE,76,2.1,3.1,83,0.00,,,0.00,WUHU216HW,2013-02-22 02:26:00,
2013-02-21 20:31:00,23.0,18.6,29.83,NNE,18,2.5,4.4,83,0.00,,,0.00,WUHU216HW,2013-02-22 02:31:00,
2013-02-21 20:36:00,23.0,18.6,29.83,NNE,18,2.8,4.1,83,0.00,,,0.00,WUHU216HW,2013-02-22 02:36:00,
2013-02-21 20:41:00,23.0,18.9,29.83,East,87,2.3,5.2,84,0.00,,,0.00,WUHU216HW,2013-02-22 02:41:00,
2013-02-21 20:46:00,23.1,18.7,29.83,ENE,59,1.5,3.1,83,0.00,,,0.00,WUHU216HW,2013-02-22 02:46:00,
2013-02-21 20:51:00,23.5,19.1,29.83,ENE,69,1.2,1.8,83,0.00,,,0.00,WUHU216HW,2013-02-22 02:51:00,
2013-02-21 20:56:00,23.7,19.3,29.82,North,5,1.7,2.3,83,0.00,,,0.00,WUHU216HW,2013-02-22 02:56:00,
2013-02-21 21:01:00,23.7,19.0,29.82,NNE,24,2.5,3.9,82,0.00,,,0.00,WUHU216HW,2013-02-22 03:01:00,
2013-02-21 21:06:00,23.7,19.0,29.82,NW,318,2.6,3.6,82,0.00,,,0.00,WUHU216HW,2013-02-22 03:06:00,
2013-02-21 21:11:00,23.7,19.3,29.82,North,357,1.6,2.1,83,0.00,,,0.00,WUHU216HW,2013-02-22 03:11:00,
2013-02-21 21:16:00,23.7,19.3,29.82,NE,49,2.7,3.6,83,0.00,,,0.00,WUHU216HW,2013-02-22 03:16:00,
2013-02-21 21:21:00,23.7,19.3,29.82,NNE,17,1.9,3.9,83,0.00,,,0.00,WUHU216HW,2013-02-22 03:21:00,
2013-02-21 21:26:00,23.7,19.3,29.82,North,9,1.6,2.9,83,0.00,,,0.00,WUHU216HW,2013-02-22 03:26:00,
2013-02-21 21:31:00,24.0,19.3,29.82,NNE,26,1.8,2.9,82,0.00,,,0.00,WUHU216HW,2013-02-22 03:31:00,
2013-02-21 21:36:00,23.9,19.2,29.82,NE,35,1.8,3.9,82,0.00,,,0.00,WUHU216HW,2013-02-22 03:36:00,
2013-02-21 21:41:00,23.9,19.5,29.82,NNE,25,2.0,3.3,83,0.00,,,0.00,WUHU216HW,2013-02-22 03:41:00,
2013-02-21 21:46:00,24.0,19.3,29.82,NNE,19,1.9,2.1,82,0.00,,,0.00,WUHU216HW,2013-02-22 03:46:00,
2013-02-21 21:51:00,24.0,19.3,29.81,NNE,32,2.4,3.1,82,0.00,,,0.00,WUHU216HW,2013-02-22 03:51:00,
2013-02-21 21:56:00,23.9,19.2,29.81,NNE,14,2.3,3.3,82,0.00,,,0.00,WUHU216HW,2013-02-22 03:56:00,
2013-02-21 22:02:00,23.9,19.2,29.81,NNE,14,2.5,3.9,82,0.00,,,0.00,WUHU216HW,2013-02-22 04:02:00,
2013-02-21 22:07:00,23.7,19.0,29.81,North,8,2.4,3.3,82,0.00,,,0.00,WUHU216HW,2013-02-22 04:07:00,
2013-02-21 22:12:00,23.9,19.2,29.81,North,0,2.4,3.3,82,0.00,,,0.00,WUHU216HW,2013-02-22 04:12:00,
2013-02-21 22:17:00,23.9,19.2,29.81,North,4,2.7,3.9,82,0.00,,,0.00,WUHU216HW,2013-02-22 04:17:00,
2013-02-21 22:22:00,23.9,19.2,29.81,NNE,12,2.9,4.6,82,0.00,,,0.00,WUHU216HW,2013-02-22 04:22:00,
2013-02-21 22:27:00,23.9,19.2,29.81,NNE,32,2.6,4.6,82,0.00,,,0.00,WUHU216HW,2013-02-22 04:27:00,
2013-02-21 22:32:00,23.9,19.2,29.81,NNE,15,2.4,3.9,82,0.00,,,0.00,WUHU216HW,2013-02-22 04:32:00,
2013-02-21 22:37:00,23.9,19.5,29.81,NNE,23,2.9,3.9,83,0.00,,,0.00,WUHU216HW,2013-02-22 04:37:00,
2013-02-21 22:42:00,23.7,19.0,29.81,NNE,25,3.0,4.4,82,0.00,,,0.00,WUHU216HW,2013-02-22 04:42:00,
2013-02-21 22:47:00,23.5,18.8,29.81,NNE,22,2.6,4.4,82,0.00,,,0.00,WUHU216HW,2013-02-22 04:47:00,
2013-02-21 22:52:00,23.5,18.8,29.80,NNE,30,2.0,2.3,82,0.00,,,0.00,WUHU216HW,2013-02-22 04:52:00,
2013-02-21 22:57:00,23.5,18.8,29.81,NE,51,2.8,4.6,82,0.00,,,0.00,WUHU216HW,2013-02-22 04:57:00,
2013-02-21 23:02:00,23.5,18.8,29.80,ESE,105,2.4,2.5,82,0.00,,,0.00,WUHU216HW,2013-02-22 05:02:00,
2013-02-21 23:07:00,23.5,18.8,29.81,NNE,13,1.5,2.3,82,0.00,,,0.00,WUHU216HW,2013-02-22 05:07:00,
2013-02-21 23:12:00,23.5,18.8,29.81,North,9,2.8,4.9,82,0.00,,,0.00,WUHU216HW,2013-02-22 05:12:00,
2013-02-21 23:17:00,23.3,18.6,29.80,NNE,33,2.7,3.3,82,0.00,,,0.00,WUHU216HW,2013-02-22 05:17:00,
2013-02-21 23:22:00,23.1,18.4,29.80,North,6,2.5,3.3,82,0.00,,,0.00,WUHU216HW,2013-02-22 05:22:00,
2013-02-21 23:27:00,23.1,18.4,29.80,NNE,33,3.0,3.6,82,0.00,,,0.00,WUHU216HW,2013-02-22 05:27:00,
2013-02-21 23:32:00,23.0,18.3,29.80,North,7,2.6,4.1,82,0.00,,,0.00,WUHU216HW,2013-02-22 05:32:00,
2013-02-21 23:37:00,22.8,18.1,29.80,NNE,25,3.3,4.6,82,0.00,,,0.00,WUHU216HW,2013-02-22 05:37:00,
2013-02-21 23:42:00,22.8,18.1,29.80,ENE,73,2.5,3.9,82,0.00,,,0.00,WUHU216HW,2013-02-22 05:42:00,
2013-02-21 23:47:00,22.8,18.1,29.80,North,2,2.8,4.4,82,0.00,,,0.00,WUHU216HW,2013-02-22 05:47:00,
2013-02-21 23:52:00,22.8,18.1,29.80,NE,36,2.8,3.9,82,0.00,,,0.00,WUHU216HW,2013-02-22 05:52:00,
2013-02-21 23:57:00,22.8,18.1,29.80,NNE,23,2.7,4.6,82,0.00,,,0.00,WUHU216HW,2013-02-22 05:57:00,